Grand Island, NE

1:59 AM CDT en Octubre 24, 2014 (GMT -0500)
Barr | Change Station
CLOSE
Current Station
Estación meteorológica personal
Location: Grand Island, NE
Altura: 1864 ft
Estaciones meteorológicas cercanas

Alt 1864 ft 40.90 °N, 98.34 °W | Updated 8 minutes ago

Despejado
Despejado
56.1 ° F
Sensación térmica 56.1 ° F
N
2.2
Viento Variable Viento desde SO

Hoy
Alta -- | Baja -- ° F
--% Posibilidad de precipitaciones
Ayer
Alta -- | Baja -- ° F
Precip. -- pul
7:54 AM 6:39 PM
Luna nueva, 0% visible
Presión 29.97 pul
Visibilidad 7.0 Millas
Nubes Despejado
Punto de rocío 56 ° F
Humedad 99%
Precipitaciones 0.00 pul
Espesor de la nieve No disponible.
UV 0 de una escala de 12
Polen 1.80 de una escala de 12
Calidad del aire No disponible.
Flu Activity Sporadic
METAR KGRI 240653Z AUTO 20011KT 7SM CLR 15/13 A2998 RMK AO2 SLP147 T01500128

More Conditions Fewer Conditions

Presión 29.97 pul
Visibilidad 7.0 Millas
Nubes Despejado
Punto de rocío 56 ° F
Humedad 99%
Precipitaciones 0.00 pul
Espesor de la nieve No disponible.
UV 0 de una escala de 12
Polen 1.80 de una escala de 12
Calidad del aire No disponible.
Flu Activity Sporadic
METAR KGRI 240653Z AUTO 20011KT 7SM CLR 15/13 A2998 RMK AO2 SLP147 T01500128

More Conditions Fewer Conditions

10-Day Weather Forecast

Almanac

Astronomía

Oct. 24, 2014 Salida Puesta
Hora real 7:54 AM CDT 6:39 PM CDT
Crepúsculo civil 7:26 AM CDT 7:07 PM CDT
Crepúsculo náutico 6:54 AM CDT 7:39 PM CDT
Crepúsculo astronómico 6:22 AM CDT 8:11 PM CDT
Luna 8:35 AM CDT 7:20 PM CDT
Horas de luz 11h 40m
Horas de luz
10h 44m
Tomorrow will be 2m 31s shorter.
Luna nueva, 0% of the Moon is Illuminated
Hoy
Luna nueva
Oct 30
Cuarto creciente
Nov 6
Luna llena
Nov 14
Cuarto menguante
Nov 22
Nueva

Extremos de hoy

Máximos del estado Bajos del estado

Community

WunderPhotos

Upload Photos

1,764,513 ¡fotos cargadas!

WunderBlogs® & News

Nearby

Grosos de nieve

Estación Profundido Altura
No tenemos constancia de nieve nueva.

Actividad de terremotos

Ciudad Distance Mag. Tiempo y dato
No hay informes recientes de la actividad sísmica.
Magnitud mínima muestra es 2,5.

Temperaturas de aguas costeras

Lugar Temperatura
Sin partes meteorológicos de las estaciones

Estaciones meteorológicas cercanas